createdAt,value
2019-03-17T00:00:04.512Z,0.2
2019-03-17T00:00:16.265Z,0.2
2019-03-17T00:00:28.016Z,0.2
2019-03-17T00:00:39.771Z,0.2
2019-03-17T00:00:51.658Z,0.2
2019-03-17T00:01:03.438Z,0.2
2019-03-17T00:01:15.179Z,0.2
2019-03-17T00:01:26.955Z,0.1
2019-03-17T00:01:38.715Z,0.1
2019-03-17T00:01:56.835Z,0.2
2019-03-17T00:02:03.201Z,0.2
2019-03-17T00:02:14.942Z,0.2
2019-03-17T00:02:26.732Z,0.2
2019-03-17T00:02:38.520Z,0.2
2019-03-17T00:02:50.303Z,0.2
2019-03-17T00:03:02.040Z,0.2
2019-03-17T00:03:13.826Z,0.1
2019-03-17T00:03:25.593Z,0.1
2019-03-17T00:03:37.385Z,0.1
2019-03-17T00:03:49.135Z,0.2
2019-03-17T00:04:00.891Z,0.1
2019-03-17T00:04:12.677Z,0.1
2019-03-17T00:04:31.150Z,0.1
2019-03-17T00:04:37.177Z,0.1
2019-03-17T00:04:48.973Z,0.2
2019-03-17T00:05:00.757Z,0.1
2019-03-17T00:05:12.551Z,0.1
2019-03-17T00:05:24.323Z,0.1
2019-03-17T00:05:36.070Z,0.1
2019-03-17T00:05:47.967Z,0.2
2019-03-17T00:05:59.754Z,0.3
2019-03-17T00:06:11.548Z,0.2
2019-03-17T00:06:23.311Z,0.2
2019-03-17T00:06:35.066Z,0.1
2019-03-17T00:06:46.821Z,0.2
2019-03-17T00:06:58.578Z,0.2
2019-03-17T00:07:10.346Z,0.2
2019-03-17T00:07:22.124Z,0.1
2019-03-17T00:07:33.890Z,0.1
2019-03-17T00:07:45.685Z,0.2
2019-03-17T00:07:57.445Z,0.2
2019-03-17T00:08:09.209Z,0.2
2019-03-17T00:08:20.966Z,0.2
2019-03-17T00:08:32.713Z,0.1
2019-03-17T00:08:44.465Z,0.1
2019-03-17T00:08:56.272Z,0.1
2019-03-17T00:09:08.033Z,0.1
2019-03-17T00:09:19.825Z,0.1
2019-03-17T00:09:31.586Z,0.1
2019-03-17T00:09:43.392Z,0.1
2019-03-17T00:09:55.175Z,0.1
2019-03-17T00:10:06.932Z,0.1
2019-03-17T00:10:18.707Z,0.1
2019-03-17T00:10:30.460Z,0.1
2019-03-17T00:10:42.220Z,0.1
2019-03-17T00:10:54.019Z,0.1
2019-03-17T00:11:05.816Z,0.1
2019-03-17T00:11:17.570Z,0.1
2019-03-17T00:11:29.346Z,0.2
2019-03-17T00:11:41.104Z,0.2
2019-03-17T00:11:52.909Z,0.1
2019-03-17T00:12:04.669Z,0.1
2019-03-17T00:12:16.442Z,0.1
2019-03-17T00:12:28.220Z,0.1
2019-03-17T00:12:40.007Z,0.1
2019-03-17T00:12:51.756Z,0.1
2019-03-17T00:13:03.524Z,0.1
2019-03-17T00:13:17.584Z,0.1
2019-03-17T00:13:27.038Z,0.1
2019-03-17T00:13:38.811Z,0.3
2019-03-17T00:13:50.587Z,0.3
2019-03-17T00:14:02.345Z,0.3
2019-03-17T00:14:14.167Z,0.1
2019-03-17T00:14:25.917Z,0.1
2019-03-17T00:14:37.686Z,0.1
2019-03-17T00:14:49.486Z,0.1
2019-03-17T00:15:05.427Z,0.1
2019-03-17T00:15:13.962Z,0.1
2019-03-17T00:15:25.713Z,0.1
2019-03-17T00:15:37.498Z,0.2
2019-03-17T00:15:49.252Z,0.2
2019-03-17T00:16:01.067Z,0.2
2019-03-17T00:16:12.834Z,0.2
2019-03-17T00:16:24.613Z,0.2
2019-03-17T00:16:36.385Z,0.2
2019-03-17T00:16:48.159Z,0.1
2019-03-17T00:16:59.927Z,0.2
2019-03-17T00:17:11.713Z,0.2
2019-03-17T00:17:25.094Z,0.1
2019-03-17T00:17:35.229Z,0.1
2019-03-17T00:17:47.978Z,0.1
2019-03-17T00:17:59.730Z,0.2
2019-03-17T00:18:11.521Z,0.2
2019-03-17T00:18:23.323Z,0.2
2019-03-17T00:18:35.078Z,0.2
2019-03-17T00:18:46.841Z,0.1
2019-03-17T00:18:58.615Z,0.1
2019-03-17T00:19:10.414Z,0.1
2019-03-17T00:19:22.169Z,0.1
2019-03-17T00:19:34.924Z,0.1
2019-03-17T00:19:46.719Z,0.1
2019-03-17T00:19:58.470Z,0.1
2019-03-17T00:20:10.227Z,0.1
2019-03-17T00:20:21.999Z,0.2
2019-03-17T00:20:33.774Z,0.2
2019-03-17T00:20:45.551Z,0.1
2019-03-17T00:20:57.314Z,0.1
2019-03-17T00:21:09.070Z,0.1
2019-03-17T00:21:20.909Z,0.2
2019-03-17T00:21:32.679Z,0.2
2019-03-17T00:21:44.441Z,0.1
2019-03-17T00:21:56.201Z,0.1
2019-03-17T00:22:07.965Z,0.1
2019-03-17T00:22:19.722Z,0.2
2019-03-17T00:22:31.492Z,0.2
2019-03-17T00:22:43.276Z,0.4
2019-03-17T00:22:55.011Z,0.4
2019-03-17T00:23:06.791Z,0.4
2019-03-17T00:23:18.568Z,0.2
2019-03-17T00:23:30.333Z,0.1
2019-03-17T00:23:42.096Z,0.1
2019-03-17T00:23:53.884Z,0.2
2019-03-17T00:24:05.665Z,0.1
2019-03-17T00:24:17.442Z,0.1
2019-03-17T00:24:29.214Z,0.1
2019-03-17T00:24:40.977Z,0.1
2019-03-17T00:24:52.761Z,0.2
2019-03-17T00:25:09.405Z,0.2
2019-03-17T00:25:17.247Z,0.1
2019-03-17T00:25:29.005Z,0.1
2019-03-17T00:25:40.786Z,0.1
2019-03-17T00:25:52.558Z,0.2
2019-03-17T00:26:04.308Z,0.1
2019-03-17T00:26:16.079Z,0.1
2019-03-17T00:26:27.851Z,0.1
2019-03-17T00:26:39.627Z,0.1
2019-03-17T00:26:51.397Z,0.1
2019-03-17T00:27:03.168Z,0.1
2019-03-17T00:27:14.940Z,0.2
2019-03-17T00:27:26.689Z,0.1
2019-03-17T00:27:38.442Z,0.2
2019-03-17T00:27:50.204Z,0.1
2019-03-17T00:28:01.988Z,0.2
2019-03-17T00:28:13.737Z,0.2
2019-03-17T00:28:25.523Z,0.1
2019-03-17T00:28:37.300Z,0.1
2019-03-17T00:28:50.033Z,0.4
2019-03-17T00:29:01.818Z,0.4
2019-03-17T00:29:13.589Z,0.4
2019-03-17T00:29:25.347Z,0.2
2019-03-17T00:29:37.128Z,0.2
2019-03-17T00:29:48.885Z,0.2
2019-03-17T00:30:00.662Z,0.2
2019-03-17T00:30:12.428Z,0.1
2019-03-17T00:30:24.195Z,0.1
2019-03-17T00:30:35.966Z,0.1
2019-03-17T00:30:47.724Z,0.1
2019-03-17T00:30:59.480Z,0.1
2019-03-17T00:31:22.748Z,0.1
2019-03-17T00:31:24.442Z,0.1
2019-03-17T00:31:35.772Z,0.2
2019-03-17T00:31:47.536Z,0.2
2019-03-17T00:31:59.334Z,0.2
2019-03-17T00:32:11.084Z,0.1
2019-03-17T00:32:22.834Z,0.1
2019-03-17T00:32:34.586Z,0.1
2019-03-17T00:32:46.351Z,0.1
2019-03-17T00:32:58.099Z,0.1
2019-03-17T00:33:09.857Z,0.1
2019-03-17T00:33:21.606Z,0.1
2019-03-17T00:33:35.372Z,0.2
2019-03-17T00:33:45.103Z,0.2
2019-03-17T00:33:56.891Z,0.2
2019-03-17T00:34:08.639Z,0.1
2019-03-17T00:34:20.431Z,0.2
2019-03-17T00:34:43.455Z,0.1
2019-03-17T00:34:44.935Z,0.1
2019-03-17T00:34:57.691Z,0.1
2019-03-17T00:35:15.332Z,0.1
2019-03-17T00:35:27.086Z,0.1
2019-03-17T00:35:38.852Z,0.1
2019-03-17T00:35:50.598Z,0.1
2019-03-17T00:36:02.375Z,0.1
2019-03-17T00:36:14.161Z,0.1
2019-03-17T00:36:25.909Z,0.1
2019-03-17T00:36:37.741Z,0.1
2019-03-17T00:36:49.496Z,0.1
2019-03-17T00:37:01.271Z,0.1
2019-03-17T00:37:13.038Z,0.1
2019-03-17T00:37:24.837Z,0.1
2019-03-17T00:37:36.601Z,0.2
2019-03-17T00:37:48.356Z,0.2
2019-03-17T00:38:00.106Z,0.2
2019-03-17T00:38:11.866Z,0.2
2019-03-17T00:38:23.634Z,0.3
2019-03-17T00:38:35.415Z,0.5
2019-03-17T00:38:47.196Z,0.5
2019-03-17T00:38:58.941Z,0.2
2019-03-17T00:39:10.707Z,0.2
2019-03-17T00:39:22.472Z,0.4
2019-03-17T00:39:34.231Z,0.4
2019-03-17T00:39:48.727Z,0.3
2019-03-17T00:39:57.750Z,0.2
2019-03-17T00:40:09.532Z,0.1
2019-03-17T00:40:21.292Z,0.2
2019-03-17T00:40:33.044Z,0.2
2019-03-17T00:40:44.833Z,0.2
2019-03-17T00:40:56.607Z,0.1
2019-03-17T00:41:08.370Z,0.1
2019-03-17T00:41:20.119Z,0.1
2019-03-17T00:41:31.933Z,0.1
2019-03-17T00:41:43.671Z,0.1
2019-03-17T00:41:55.435Z,0.1
2019-03-17T00:42:07.193Z,0.1
2019-03-17T00:42:18.946Z,0.1
2019-03-17T00:42:30.732Z,0.1
2019-03-17T00:42:42.488Z,0.1
2019-03-17T00:42:54.240Z,0.1
2019-03-17T00:43:06.010Z,0.2
2019-03-17T00:43:17.769Z,0.2
2019-03-17T00:43:29.595Z,0.1
2019-03-17T00:43:41.385Z,0.1
2019-03-17T00:43:53.172Z,0.1
2019-03-17T00:44:04.932Z,0.1
2019-03-17T00:44:16.685Z,0.1
2019-03-17T00:44:28.478Z,0.1
2019-03-17T00:44:40.260Z,0.1
2019-03-17T00:44:52.017Z,0.1
2019-03-17T00:45:03.780Z,0.2
2019-03-17T00:45:15.525Z,0.2
2019-03-17T00:45:27.271Z,0.2
2019-03-17T00:45:39.066Z,0.2
2019-03-17T00:45:50.859Z,0.2
2019-03-17T00:46:02.596Z,0.2
2019-03-17T00:46:14.397Z,0.2
2019-03-17T00:46:26.191Z,0.2
2019-03-17T00:46:37.967Z,0.2
2019-03-17T00:46:49.722Z,0.2
2019-03-17T00:47:01.538Z,0.2
2019-03-17T00:47:13.302Z,0.1
2019-03-17T00:47:25.050Z,0.1
2019-03-17T00:47:36.845Z,0.2
2019-03-17T00:47:48.605Z,0.2
2019-03-17T00:48:00.383Z,0.2
2019-03-17T00:48:12.158Z,0.1
2019-03-17T00:48:23.941Z,0.1
2019-03-17T00:48:35.715Z,0.1
2019-03-17T00:48:47.456Z,0.1
2019-03-17T00:48:59.207Z,0.1
2019-03-17T00:49:10.968Z,0.1
2019-03-17T00:49:22.725Z,0.1
2019-03-17T00:49:34.486Z,0.1
2019-03-17T00:49:46.232Z,0.1
2019-03-17T00:49:57.991Z,0.1
2019-03-17T00:50:09.736Z,0.1
2019-03-17T00:50:21.482Z,0.1
2019-03-17T00:50:33.236Z,0.2
2019-03-17T00:50:45.038Z,0.2
2019-03-17T00:50:56.782Z,0.1
2019-03-17T00:51:08.536Z,0.1
2019-03-17T00:51:20.278Z,0.1
2019-03-17T00:51:32.038Z,0.2
2019-03-17T00:51:43.798Z,0.1
2019-03-17T00:51:55.599Z,0.1
2019-03-17T00:52:07.336Z,0.2
2019-03-17T00:52:19.127Z,0.2
2019-03-17T00:52:30.934Z,0.2
2019-03-17T00:52:42.726Z,0.2
2019-03-17T00:52:54.516Z,0.5
2019-03-17T00:53:06.370Z,0.5
2019-03-17T00:53:18.129Z,0.5
2019-03-17T00:53:29.953Z,0.2
2019-03-17T00:53:41.733Z,0.2
2019-03-17T00:53:53.493Z,0.2
2019-03-17T00:54:05.244Z,0.2
2019-03-17T00:54:17.021Z,0.2
2019-03-17T00:54:28.813Z,0.2
2019-03-17T00:54:40.565Z,0.2
2019-03-17T00:54:52.338Z,0.1
2019-03-17T00:55:04.102Z,0.1
2019-03-17T00:55:15.876Z,0.1
2019-03-17T00:55:27.650Z,0.2
2019-03-17T00:55:39.445Z,0.2
2019-03-17T00:55:51.236Z,0.2
2019-03-17T00:56:02.987Z,0.1
2019-03-17T00:56:14.790Z,0.1
2019-03-17T00:56:26.538Z,0.3
2019-03-17T00:56:38.292Z,0.3
2019-03-17T00:56:51.081Z,0.2
2019-03-17T00:57:02.845Z,0.2
2019-03-17T00:57:14.607Z,0.2
2019-03-17T00:57:26.395Z,0.1
2019-03-17T00:57:38.157Z,0.1
2019-03-17T00:57:49.930Z,0.1
2019-03-17T00:58:01.687Z,0.1
2019-03-17T00:58:13.464Z,0.1
2019-03-17T00:58:25.212Z,0.1
2019-03-17T00:58:37.025Z,0.2
2019-03-17T00:58:48.825Z,0.2
2019-03-17T00:59:00.560Z,0.3
2019-03-17T00:59:12.312Z,0.4
2019-03-17T00:59:24.080Z,0.2
2019-03-17T00:59:35.843Z,0.2
2019-03-17T00:59:47.606Z,0.1
2019-03-17T00:59:59.348Z,0.1
2019-03-17T01:00:11.112Z,0.1
2019-03-17T01:00:22.877Z,0.1
2019-03-17T01:00:34.640Z,0.2
2019-03-17T01:00:46.397Z,0.2
2019-03-17T01:00:58.150Z,0.2
2019-03-17T01:01:09.903Z,0.2
2019-03-17T01:01:21.665Z,0.2
2019-03-17T01:01:33.434Z,0.2
2019-03-17T01:01:45.191Z,0.1
2019-03-17T01:01:56.932Z,0.1
2019-03-17T01:02:08.695Z,0.1
2019-03-17T01:02:20.457Z,0.1
2019-03-17T01:02:32.229Z,0.1
2019-03-17T01:02:44.003Z,0.3
2019-03-17T01:02:55.765Z,0.4
2019-03-17T01:03:07.572Z,0.2
2019-03-17T01:03:19.323Z,0.2
2019-03-17T01:03:31.131Z,0.2
2019-03-17T01:03:42.896Z,0.1
2019-03-17T01:03:54.677Z,0.1
2019-03-17T01:04:06.445Z,0.1
2019-03-17T01:04:18.212Z,0.1
2019-03-17T01:04:29.974Z,0.1
2019-03-17T01:04:41.751Z,0.1
2019-03-17T01:04:56.319Z,0.1
2019-03-17T01:05:06.209Z,0.1
2019-03-17T01:05:18.043Z,0.1
2019-03-17T01:05:31.222Z,0.2
2019-03-17T01:05:41.568Z,0.2
2019-03-17T01:05:53.351Z,0.1
2019-03-17T01:06:05.106Z,0.1
2019-03-17T01:06:16.870Z,0.1
2019-03-17T01:06:28.635Z,0.1
2019-03-17T01:06:40.404Z,0.1
2019-03-17T01:06:52.196Z,0.1
2019-03-17T01:07:03.978Z,0.1
2019-03-17T01:07:15.741Z,0.1
2019-03-17T01:07:27.494Z,0.2
2019-03-17T01:07:39.264Z,0.3
2019-03-17T01:07:50.999Z,0.2
2019-03-17T01:08:02.751Z,0.2
2019-03-17T01:08:14.505Z,0.1
2019-03-17T01:08:26.285Z,0.1
2019-03-17T01:08:38.066Z,0.1
2019-03-17T01:08:49.846Z,0.5
2019-03-17T01:09:01.630Z,0.5
2019-03-17T01:09:13.389Z,0.5
2019-03-17T01:09:25.172Z,0.1
2019-03-17T01:09:36.987Z,0.1
2019-03-17T01:09:48.758Z,0.2
2019-03-17T01:10:00.553Z,0.2
2019-03-17T01:10:12.277Z,0.2
2019-03-17T01:10:24.088Z,0.2
2019-03-17T01:10:35.859Z,0.2
2019-03-17T01:10:47.630Z,0.1
2019-03-17T01:10:59.383Z,0.1
2019-03-17T01:11:11.183Z,0.1
2019-03-17T01:11:22.964Z,0.1
2019-03-17T01:11:34.724Z,0.1
2019-03-17T01:11:46.489Z,0.1
2019-03-17T01:11:58.276Z,0.2
2019-03-17T01:12:11.011Z,0.1
2019-03-17T01:12:22.784Z,0.2
2019-03-17T01:12:34.549Z,0.1
2019-03-17T01:12:46.314Z,0.1
2019-03-17T01:12:58.089Z,0.1
2019-03-17T01:13:09.833Z,0.1
2019-03-17T01:13:21.605Z,0.1
2019-03-17T01:13:33.389Z,0.1
2019-03-17T01:13:45.172Z,0.1
2019-03-17T01:13:56.978Z,0.1
2019-03-17T01:14:08.759Z,0.1
2019-03-17T01:14:20.524Z,0.2
2019-03-17T01:14:32.310Z,0.2
2019-03-17T01:14:44.102Z,0.1
2019-03-17T01:14:55.864Z,0.1
2019-03-17T01:15:07.642Z,0.1
2019-03-17T01:15:19.421Z,0.1
2019-03-17T01:15:31.177Z,0.2
2019-03-17T01:15:42.936Z,0.2
2019-03-17T01:15:54.718Z,0.1
2019-03-17T01:16:06.471Z,0.1
2019-03-17T01:16:18.245Z,0.1
2019-03-17T01:16:30.001Z,0.1
2019-03-17T01:16:41.746Z,0.2
2019-03-17T01:16:53.517Z,0.2
2019-03-17T01:17:05.289Z,0.1
2019-03-17T01:17:17.075Z,0.1
2019-03-17T01:17:28.881Z,0.1
2019-03-17T01:17:40.648Z,0.1
2019-03-17T01:17:52.406Z,0.1
2019-03-17T01:18:04.184Z,0.1
2019-03-17T01:18:15.942Z,0.1
2019-03-17T01:18:27.736Z,0.1
2019-03-17T01:18:39.530Z,0.2
2019-03-17T01:18:51.291Z,0.2
2019-03-17T01:19:03.047Z,0.2
2019-03-17T01:19:14.814Z,0.2
2019-03-17T01:19:26.572Z,0.2
2019-03-17T01:19:38.341Z,0.2
2019-03-17T01:19:50.277Z,0.2
2019-03-17T01:20:02.033Z,0.2
2019-03-17T01:20:13.822Z,0.1
2019-03-17T01:20:25.593Z,0.1
2019-03-17T01:20:37.355Z,0.1
2019-03-17T01:20:49.160Z,0.1
2019-03-17T01:21:00.920Z,0.2
2019-03-17T01:21:12.663Z,0.2
2019-03-17T01:21:25.427Z,0.1
2019-03-17T01:21:37.170Z,0.1
2019-03-17T01:21:48.963Z,0.1
2019-03-17T01:22:00.727Z,0.1
2019-03-17T01:22:12.478Z,0.2
2019-03-17T01:22:24.251Z,0.2
2019-03-17T01:22:36.045Z,0.2
2019-03-17T01:22:47.817Z,0.1
2019-03-17T01:22:59.601Z,0.1
2019-03-17T01:23:11.378Z,0.2
2019-03-17T01:23:23.136Z,0.2
2019-03-17T01:23:34.919Z,0.1
2019-03-17T01:23:46.653Z,0.2
2019-03-17T01:23:58.457Z,0.2
2019-03-17T01:24:10.428Z,0.2
2019-03-17T01:24:21.937Z,0.2
2019-03-17T01:24:33.682Z,0.2
2019-03-17T01:24:45.427Z,0.2
2019-03-17T01:24:57.211Z,0.1
2019-03-17T01:25:08.974Z,0.1
2019-03-17T01:25:20.775Z,0.1
2019-03-17T01:25:32.534Z,0.2
2019-03-17T01:25:44.298Z,0.2
2019-03-17T01:25:56.088Z,0.2
2019-03-17T01:26:07.862Z,0.6
2019-03-17T01:26:19.619Z,0.6
2019-03-17T01:26:31.403Z,0.9
2019-03-17T01:26:43.151Z,0.4
2019-03-17T01:26:54.925Z,0.4
2019-03-17T01:27:06.719Z,0.2
2019-03-17T01:27:18.472Z,0.1
2019-03-17T01:27:30.250Z,0.2
2019-03-17T01:27:42.060Z,0.2
2019-03-17T01:27:53.827Z,0.2
2019-03-17T01:28:05.600Z,0.2
2019-03-17T01:28:17.373Z,0.1
2019-03-17T01:28:29.143Z,0.1
2019-03-17T01:28:40.917Z,0.1
2019-03-17T01:28:52.700Z,0.1
2019-03-17T01:29:04.484Z,0.1
2019-03-17T01:29:16.264Z,0.1
2019-03-17T01:29:28.024Z,0.1
2019-03-17T01:29:39.782Z,0.1
2019-03-17T01:29:51.553Z,0.1
2019-03-17T01:30:04.302Z,0.2
2019-03-17T01:30:16.064Z,0.3
2019-03-17T01:30:27.829Z,0.3
2019-03-17T01:30:39.604Z,0.3
2019-03-17T01:30:51.380Z,0.1
2019-03-17T01:31:03.175Z,0.1
2019-03-17T01:31:14.962Z,0.1
2019-03-17T01:31:26.785Z,0.1
2019-03-17T01:31:38.561Z,0.1
2019-03-17T01:31:50.321Z,0.1
2019-03-17T01:32:02.073Z,0.2
2019-03-17T01:32:13.830Z,0.2
2019-03-17T01:32:25.589Z,0.1
2019-03-17T01:32:37.351Z,0.2
2019-03-17T01:32:49.152Z,0.2
2019-03-17T01:33:00.918Z,0.1
2019-03-17T01:33:12.692Z,0.1
2019-03-17T01:33:24.453Z,0.1
2019-03-17T01:33:36.222Z,0.1
2019-03-17T01:33:47.990Z,0.1
2019-03-17T01:33:59.730Z,0.1
2019-03-17T01:34:11.479Z,0.2
2019-03-17T01:34:23.230Z,0.2
2019-03-17T01:34:34.992Z,0.2
2019-03-17T01:34:46.735Z,0.2
2019-03-17T01:35:08.416Z,0.1
2019-03-17T01:35:11.191Z,0.1
2019-03-17T01:35:22.953Z,0.1
2019-03-17T01:35:34.729Z,0.1
2019-03-17T01:35:46.533Z,0.1
2019-03-17T01:35:58.316Z,0.1
2019-03-17T01:36:10.075Z,0.2
2019-03-17T01:36:21.839Z,0.1
2019-03-17T01:36:33.594Z,0.1
2019-03-17T01:36:45.398Z,0.1
2019-03-17T01:36:57.127Z,0.2
2019-03-17T01:37:08.871Z,0.3
2019-03-17T01:37:20.648Z,0.3
2019-03-17T01:37:32.400Z,0.1
2019-03-17T01:37:44.176Z,0.1
2019-03-17T01:37:55.917Z,0.2
2019-03-17T01:38:07.664Z,0.2
2019-03-17T01:38:19.455Z,0.2
2019-03-17T01:38:31.215Z,0.1
2019-03-17T01:38:42.991Z,0.1
2019-03-17T01:38:54.765Z,0.2
2019-03-17T01:39:06.563Z,0.2
2019-03-17T01:39:18.328Z,0.2
2019-03-17T01:39:30.084Z,0.1
2019-03-17T01:39:41.853Z,0.1
2019-03-17T01:39:53.648Z,0.1
2019-03-17T01:40:05.430Z,0.1
2019-03-17T01:40:17.170Z,0.1
2019-03-17T01:40:28.961Z,0.3
2019-03-17T01:40:40.715Z,0.3
2019-03-17T01:40:52.483Z,0.3
2019-03-17T01:41:04.411Z,0.1
2019-03-17T01:41:16.174Z,0.2
2019-03-17T01:41:27.945Z,0.3
2019-03-17T01:41:39.721Z,0.3
2019-03-17T01:41:51.490Z,0.2
2019-03-17T01:42:03.228Z,0.1
2019-03-17T01:42:14.986Z,0.1
2019-03-17T01:42:26.730Z,0.1
2019-03-17T01:42:38.498Z,0.1
2019-03-17T01:42:50.247Z,0.2
2019-03-17T01:43:02.039Z,0.2
2019-03-17T01:43:13.816Z,0.2
2019-03-17T01:43:25.582Z,0.2
2019-03-17T01:43:37.375Z,0.1
2019-03-17T01:43:49.127Z,0.2
2019-03-17T01:44:00.894Z,0.2
2019-03-17T01:44:12.632Z,0.2
2019-03-17T01:44:24.405Z,0.1
2019-03-17T01:44:36.161Z,0.1
2019-03-17T01:44:47.912Z,0.1
2019-03-17T01:44:59.682Z,0.1
2019-03-17T01:45:11.460Z,0.2
2019-03-17T01:45:23.201Z,0.2
2019-03-17T01:45:34.944Z,0.2
2019-03-17T01:45:46.706Z,0.2
2019-03-17T01:45:58.480Z,0.4
2019-03-17T01:46:10.242Z,0.4
2019-03-17T01:46:21.984Z,0.4
2019-03-17T01:46:33.797Z,0.2
2019-03-17T01:46:45.559Z,0.1
2019-03-17T01:46:57.345Z,0.1
2019-03-17T01:47:09.095Z,0.1
2019-03-17T01:47:20.883Z,0.2
2019-03-17T01:47:33.650Z,0.2
2019-03-17T01:47:45.401Z,0.2
2019-03-17T01:47:57.153Z,0.1
2019-03-17T01:48:08.913Z,0.2
2019-03-17T01:48:20.683Z,0.2
2019-03-17T01:48:32.427Z,0.2
2019-03-17T01:48:44.202Z,0.1
2019-03-17T01:48:55.965Z,0.1
2019-03-17T01:49:07.725Z,0.2
2019-03-17T01:49:19.483Z,0.2
2019-03-17T01:49:31.267Z,0.2
2019-03-17T01:49:43.017Z,0.2
2019-03-17T01:49:54.753Z,0.2
2019-03-17T01:50:06.543Z,0.2
2019-03-17T01:50:18.295Z,0.2
2019-03-17T01:50:30.058Z,0.2
2019-03-17T01:50:41.822Z,0.2
2019-03-17T01:50:53.575Z,0.1
2019-03-17T01:51:05.370Z,0.1
2019-03-17T01:51:17.143Z,0.1
2019-03-17T01:51:28.917Z,0.1
2019-03-17T01:51:40.733Z,0.1
2019-03-17T01:51:52.472Z,0.3
2019-03-17T01:52:04.284Z,0.4
2019-03-17T01:52:16.054Z,0.4
2019-03-17T01:52:27.827Z,0.4
2019-03-17T01:52:39.590Z,0.4
2019-03-17T01:52:51.377Z,0.1
2019-03-17T01:53:03.131Z,0.2
2019-03-17T01:53:14.885Z,0.2
2019-03-17T01:53:26.649Z,0.2
2019-03-17T01:53:38.411Z,0.2
2019-03-17T01:53:50.196Z,0.1
2019-03-17T01:54:01.971Z,0.1
2019-03-17T01:54:13.733Z,0.2
2019-03-17T01:54:25.480Z,0.2
2019-03-17T01:54:37.245Z,0.2
2019-03-17T01:54:48.979Z,0.2
2019-03-17T01:55:00.760Z,0.2
2019-03-17T01:55:12.520Z,0.1
2019-03-17T01:55:24.307Z,0.1
2019-03-17T01:55:36.070Z,0.1
2019-03-17T01:55:47.829Z,0.1
2019-03-17T01:55:59.595Z,0.2
2019-03-17T01:56:11.349Z,0.3
2019-03-17T01:56:23.117Z,0.3
2019-03-17T01:56:34.851Z,0.3
2019-03-17T01:56:46.621Z,0.2
2019-03-17T01:56:58.371Z,0.2
2019-03-17T01:57:10.184Z,0.1
2019-03-17T01:57:21.960Z,0.1
2019-03-17T01:57:33.741Z,0.1
2019-03-17T01:57:45.516Z,0.1
2019-03-17T01:57:57.278Z,0.1
2019-03-17T01:58:09.023Z,0.1
2019-03-17T01:58:20.791Z,0.1
2019-03-17T01:58:32.573Z,0.5
2019-03-17T01:58:44.348Z,0.5
2019-03-17T01:58:56.100Z,0.7
2019-03-17T01:59:07.875Z,0.3
2019-03-17T01:59:19.661Z,0.2
2019-03-17T01:59:31.435Z,0.2
2019-03-17T01:59:43.177Z,0.2
2019-03-17T01:59:54.943Z,0.4
2019-03-17T02:00:06.696Z,0.4
2019-03-17T02:00:18.449Z,0.1
2019-03-17T02:00:30.198Z,0.1
2019-03-17T02:00:41.944Z,0.1
2019-03-17T02:00:53.691Z,0.1
2019-03-17T02:01:05.463Z,0.1
2019-03-17T02:01:18.221Z,0.2
2019-03-17T02:01:29.998Z,0.2
2019-03-17T02:01:41.738Z,0.7
2019-03-17T02:01:53.527Z,0.8
2019-03-17T02:02:05.291Z,0.8
2019-03-17T02:02:17.208Z,0.4
2019-03-17T02:02:28.970Z,0.3
2019-03-17T02:02:40.752Z,0.3
2019-03-17T02:02:52.537Z,0.1
2019-03-17T02:03:04.322Z,0.1
2019-03-17T02:03:16.084Z,0.2
2019-03-17T02:03:27.858Z,0.3
2019-03-17T02:03:39.634Z,0.3
2019-03-17T02:03:51.413Z,0.2
2019-03-17T02:04:03.216Z,0.2
2019-03-17T02:04:14.955Z,0.2
2019-03-17T02:04:26.747Z,0.1
2019-03-17T02:04:38.540Z,0.2
2019-03-17T02:04:50.323Z,0.2
2019-03-17T02:05:02.094Z,0.2
2019-03-17T02:05:21.710Z,0.1
2019-03-17T02:05:26.547Z,0.1
2019-03-17T02:05:38.313Z,0.2
2019-03-17T02:05:50.060Z,0.2
2019-03-17T02:06:01.842Z,0.2
2019-03-17T02:06:13.592Z,0.1
2019-03-17T02:06:25.362Z,0.1
2019-03-17T02:06:37.129Z,0.1
2019-03-17T02:06:48.893Z,0.1
2019-03-17T02:07:00.672Z,0.2
2019-03-17T02:07:12.434Z,0.1
2019-03-17T02:07:24.210Z,0.1
2019-03-17T02:07:35.993Z,0.3
2019-03-17T02:07:47.777Z,0.3
2019-03-17T02:07:59.538Z,0.2
2019-03-17T02:08:11.302Z,0.2
2019-03-17T02:08:23.061Z,0.2
2019-03-17T02:08:34.845Z,0.1
2019-03-17T02:08:46.619Z,0.1
2019-03-17T02:08:58.375Z,0.1
2019-03-17T02:09:10.177Z,0.1
2019-03-17T02:09:21.954Z,0.2
2019-03-17T02:09:33.718Z,0.2
2019-03-17T02:09:45.498Z,0.2
2019-03-17T02:09:57.242Z,0.1
2019-03-17T02:10:09.005Z,0.1
2019-03-17T02:10:20.795Z,0.2
2019-03-17T02:10:32.598Z,0.2
2019-03-17T02:10:44.396Z,0.2
2019-03-17T02:10:56.172Z,0.1
2019-03-17T02:11:07.955Z,0.1
2019-03-17T02:11:19.713Z,0.1
2019-03-17T02:11:31.475Z,0.1
2019-03-17T02:11:43.247Z,0.1
2019-03-17T02:11:54.984Z,0.1
2019-03-17T02:12:06.763Z,0.1
2019-03-17T02:12:18.580Z,0.2
2019-03-17T02:12:30.334Z,0.2
2019-03-17T02:12:42.112Z,0.3
2019-03-17T02:12:53.918Z,0.2
2019-03-17T02:13:05.694Z,0.2
2019-03-17T02:13:17.458Z,0.2
2019-03-17T02:13:29.246Z,0.1
2019-03-17T02:13:40.991Z,0.1
2019-03-17T02:13:52.748Z,0.3
2019-03-17T02:14:04.524Z,0.3
2019-03-17T02:14:16.282Z,0.1
2019-03-17T02:14:28.040Z,0.2
2019-03-17T02:14:39.888Z,0.2
2019-03-17T02:14:51.562Z,0.2
2019-03-17T02:15:03.337Z,0.2
2019-03-17T02:15:15.095Z,0.2
2019-03-17T02:15:26.884Z,0.2
2019-03-17T02:15:38.637Z,0.2
2019-03-17T02:15:50.411Z,0.1
2019-03-17T02:16:02.207Z,0.1
2019-03-17T02:16:14.028Z,0.1
2019-03-17T02:16:25.760Z,0.2
2019-03-17T02:16:37.513Z,0.1
2019-03-17T02:16:49.287Z,0.2
2019-03-17T02:17:01.060Z,0.4
2019-03-17T02:17:12.840Z,0.4
2019-03-17T02:17:24.598Z,0.5
2019-03-17T02:17:36.379Z,0.2
2019-03-17T02:17:48.153Z,0.2
2019-03-17T02:17:59.916Z,0.2
2019-03-17T02:18:11.663Z,0.2
2019-03-17T02:18:23.420Z,0.2
2019-03-17T02:18:35.211Z,0.2
2019-03-17T02:18:46.986Z,0.2
2019-03-17T02:18:58.738Z,0.1
2019-03-17T02:19:11.531Z,0.1
2019-03-17T02:19:24.347Z,0.1
2019-03-17T02:19:36.112Z,0.2
2019-03-17T02:19:47.862Z,0.2
2019-03-17T02:19:59.610Z,0.2
2019-03-17T02:20:11.358Z,0.2
2019-03-17T02:20:23.122Z,0.2
2019-03-17T02:20:34.892Z,0.1
2019-03-17T02:20:46.653Z,0.1
2019-03-17T02:20:58.405Z,0.1
2019-03-17T02:21:10.150Z,0.2
2019-03-17T02:21:21.914Z,0.2
2019-03-17T02:21:33.660Z,0.1
2019-03-17T02:21:45.406Z,0.1
2019-03-17T02:21:57.173Z,0.2
2019-03-17T02:22:08.947Z,0.2
2019-03-17T02:22:22.209Z,0.2
2019-03-17T02:22:32.478Z,0.2
2019-03-17T02:22:44.254Z,0.2
2019-03-17T02:22:56.022Z,0.2
2019-03-17T02:23:07.771Z,0.2
2019-03-17T02:23:19.523Z,0.1
2019-03-17T02:23:31.318Z,0.1
2019-03-17T02:23:43.067Z,0.1
2019-03-17T02:23:54.821Z,0.1
2019-03-17T02:24:06.575Z,0.1
2019-03-17T02:24:18.351Z,0.2
2019-03-17T02:24:30.124Z,0.3
2019-03-17T02:24:41.874Z,0.2
2019-03-17T02:24:53.630Z,0.2
2019-03-17T02:25:05.391Z,0.2
2019-03-17T02:25:17.143Z,0.2
2019-03-17T02:25:28.904Z,0.2
2019-03-17T02:25:40.691Z,0.2
2019-03-17T02:25:52.452Z,0.2
2019-03-17T02:26:04.221Z,0.2
2019-03-17T02:26:15.979Z,0.1
2019-03-17T02:26:27.744Z,0.2
2019-03-17T02:26:39.526Z,0.4
2019-03-17T02:26:51.286Z,0.5
2019-03-17T02:27:03.051Z,0.5
2019-03-17T02:27:14.802Z,0.1
2019-03-17T02:27:26.590Z,0.1
2019-03-17T02:27:38.388Z,0.1
2019-03-17T02:27:50.169Z,0.1
2019-03-17T02:28:01.942Z,0.1
2019-03-17T02:28:13.707Z,0.1
2019-03-17T02:28:25.496Z,0.1
2019-03-17T02:28:37.255Z,0.1
2019-03-17T02:28:49.042Z,0.1
2019-03-17T02:29:00.833Z,0.1
2019-03-17T02:29:12.589Z,0.2
2019-03-17T02:29:24.489Z,0.2
2019-03-17T02:29:36.279Z,0.2
2019-03-17T02:29:48.028Z,0.2
2019-03-17T02:29:59.808Z,0.1
2019-03-17T02:30:11.578Z,0.2
2019-03-17T02:30:23.362Z,0.2
2019-03-17T02:30:35.161Z,0.1
2019-03-17T02:30:46.940Z,0.2
2019-03-17T02:30:58.705Z,0.2
2019-03-17T02:31:10.467Z,0.2
2019-03-17T02:31:22.248Z,0.2
2019-03-17T02:31:34.018Z,0.2
2019-03-17T02:31:45.789Z,0.2
2019-03-17T02:31:57.562Z,0.2
2019-03-17T02:32:09.331Z,0.1
2019-03-17T02:32:21.095Z,0.1
2019-03-17T02:32:32.836Z,0.1
2019-03-17T02:32:44.609Z,0.1
2019-03-17T02:32:56.397Z,0.2
2019-03-17T02:33:08.155Z,0.2
2019-03-17T02:33:19.933Z,0.2
2019-03-17T02:33:31.692Z,0.2
2019-03-17T02:33:43.436Z,0.2
2019-03-17T02:33:55.215Z,0.1
2019-03-17T02:34:06.989Z,0.1
2019-03-17T02:34:19.740Z,0.1
2019-03-17T02:34:31.541Z,0.1
2019-03-17T02:34:43.294Z,0.1
2019-03-17T02:34:55.088Z,0.1
2019-03-17T02:35:07.818Z,0.1
2019-03-17T02:35:19.591Z,0.2
2019-03-17T02:35:39.191Z,0.2
2019-03-17T02:35:45.023Z,0.2
2019-03-17T02:35:56.790Z,0.2
2019-03-17T02:36:08.558Z,0.2
2019-03-17T02:36:20.329Z,0.2
2019-03-17T02:36:32.093Z,0.1
2019-03-17T02:36:43.868Z,0.1
2019-03-17T02:36:55.672Z,0.1
2019-03-17T02:37:07.392Z,0.1
2019-03-17T02:37:19.187Z,0.1
2019-03-17T02:37:30.970Z,0.2
2019-03-17T02:37:42.787Z,0.4
2019-03-17T02:37:54.546Z,0.4
2019-03-17T02:38:06.327Z,0.2
2019-03-17T02:38:18.114Z,0.1
2019-03-17T02:38:29.852Z,0.2
2019-03-17T02:38:41.618Z,0.1
2019-03-17T02:38:53.382Z,0.1
2019-03-17T02:39:05.141Z,0.1
2019-03-17T02:39:16.907Z,0.1
2019-03-17T02:39:28.803Z,0.1
2019-03-17T02:39:40.607Z,0.1
2019-03-17T02:39:52.366Z,0.1
2019-03-17T02:40:04.154Z,0.2
2019-03-17T02:40:15.916Z,0.2
2019-03-17T02:40:27.664Z,0.3
2019-03-17T02:40:39.433Z,0.2
2019-03-17T02:40:51.230Z,0.1
2019-03-17T02:41:03.989Z,0.1
2019-03-17T02:41:15.839Z,0.1
2019-03-17T02:41:27.530Z,0.1
2019-03-17T02:41:39.300Z,0.1
2019-03-17T02:41:51.091Z,0.1
2019-03-17T02:42:02.844Z,0.1
2019-03-17T02:42:14.665Z,0.1
2019-03-17T02:42:26.368Z,0.1
2019-03-17T02:42:38.150Z,0.1